sensor_id;sensor_type;location;lat;lon;timestamp;P1;durP1;ratioP1;P2;durP2;ratioP2
2105;SDS011;1059;52.548;13.408;2023-02-19T00:01:31;3.47;;;2.30;;
2105;SDS011;1059;52.548;13.408;2023-02-19T00:03:59;4.57;;;2.43;;
2105;SDS011;1059;52.548;13.408;2023-02-19T00:06:28;7.43;;;3.67;;
2105;SDS011;1059;52.548;13.408;2023-02-19T00:08:57;6.90;;;4.00;;
2105;SDS011;1059;52.548;13.408;2023-02-19T00:11:25;9.37;;;5.07;;
2105;SDS011;1059;52.548;13.408;2023-02-19T00:13:54;6.10;;;3.80;;
2105;SDS011;1059;52.548;13.408;2023-02-19T00:16:23;5.33;;;3.30;;
2105;SDS011;1059;52.548;13.408;2023-02-19T00:18:52;4.10;;;2.83;;
2105;SDS011;1059;52.548;13.408;2023-02-19T00:21:20;3.47;;;2.93;;
2105;SDS011;1059;52.548;13.408;2023-02-19T00:23:48;3.93;;;2.50;;
2105;SDS011;1059;52.548;13.408;2023-02-19T00:26:15;2.87;;;2.53;;
2105;SDS011;1059;52.548;13.408;2023-02-19T00:28:43;3.33;;;2.60;;
2105;SDS011;1059;52.548;13.408;2023-02-19T00:31:14;2.57;;;1.90;;
2105;SDS011;1059;52.548;13.408;2023-02-19T00:33:42;3.60;;;2.70;;
2105;SDS011;1059;52.548;13.408;2023-02-19T00:36:10;4.23;;;2.60;;
2105;SDS011;1059;52.548;13.408;2023-02-19T00:38:37;4.30;;;2.40;;
2105;SDS011;1059;52.548;13.408;2023-02-19T00:41:06;4.07;;;2.33;;
2105;SDS011;1059;52.548;13.408;2023-02-19T00:43:44;2.90;;;2.27;;
2105;SDS011;1059;52.548;13.408;2023-02-19T00:46:13;3.67;;;2.47;;
2105;SDS011;1059;52.548;13.408;2023-02-19T00:48:40;3.53;;;2.30;;
2105;SDS011;1059;52.548;13.408;2023-02-19T00:51:07;3.90;;;2.60;;
2105;SDS011;1059;52.548;13.408;2023-02-19T00:53:34;4.80;;;2.83;;
2105;SDS011;1059;52.548;13.408;2023-02-19T00:56:01;5.17;;;2.30;;
2105;SDS011;1059;52.548;13.408;2023-02-19T00:58:28;3.20;;;2.17;;
2105;SDS011;1059;52.548;13.408;2023-02-19T01:00:55;3.23;;;2.50;;
2105;SDS011;1059;52.548;13.408;2023-02-19T01:03:24;3.00;;;2.30;;
2105;SDS011;1059;52.548;13.408;2023-02-19T01:05:51;3.20;;;2.47;;
2105;SDS011;1059;52.548;13.408;2023-02-19T01:08:19;3.47;;;2.80;;
2105;SDS011;1059;52.548;13.408;2023-02-19T01:10:46;4.13;;;3.53;;
2105;SDS011;1059;52.548;13.408;2023-02-19T01:13:12;4.27;;;2.40;;
2105;SDS011;1059;52.548;13.408;2023-02-19T01:15:39;3.13;;;2.50;;
2105;SDS011;1059;52.548;13.408;2023-02-19T01:18:07;3.73;;;2.80;;
2105;SDS011;1059;52.548;13.408;2023-02-19T01:20:35;3.40;;;2.80;;
2105;SDS011;1059;52.548;13.408;2023-02-19T01:23:04;4.60;;;3.23;;
2105;SDS011;1059;52.548;13.408;2023-02-19T01:25:30;6.83;;;3.63;;
2105;SDS011;1059;52.548;13.408;2023-02-19T01:27:57;4.10;;;3.10;;
2105;SDS011;1059;52.548;13.408;2023-02-19T01:30:24;8.77;;;3.70;;
2105;SDS011;1059;52.548;13.408;2023-02-19T01:32:51;5.03;;;3.40;;
2105;SDS011;1059;52.548;13.408;2023-02-19T01:35:18;4.33;;;3.17;;
2105;SDS011;1059;52.548;13.408;2023-02-19T01:37:46;5.10;;;3.90;;
2105;SDS011;1059;52.548;13.408;2023-02-19T01:40:13;4.53;;;3.10;;
2105;SDS011;1059;52.548;13.408;2023-02-19T01:42:41;5.60;;;3.57;;
2105;SDS011;1059;52.548;13.408;2023-02-19T01:47:51;2.90;;;2.60;;
2105;SDS011;1059;52.548;13.408;2023-02-19T01:50:33;4.90;;;3.57;;
2105;SDS011;1059;52.548;13.408;2023-02-19T01:53:05;4.30;;;3.63;;
2105;SDS011;1059;52.548;13.408;2023-02-19T01:55:35;4.70;;;4.13;;
2105;SDS011;1059;52.548;13.408;2023-02-19T01:58:02;5.80;;;4.30;;
2105;SDS011;1059;52.548;13.408;2023-02-19T02:00:30;6.80;;;4.50;;
2105;SDS011;1059;52.548;13.408;2023-02-19T02:02:58;7.60;;;4.77;;
2105;SDS011;1059;52.548;13.408;2023-02-19T02:05:35;6.37;;;4.77;;
2105;SDS011;1059;52.548;13.408;2023-02-19T02:08:13;6.80;;;5.30;;
2105;SDS011;1059;52.548;13.408;2023-02-19T02:10:59;7.30;;;5.57;;
2105;SDS011;1059;52.548;13.408;2023-02-19T02:13:26;7.57;;;5.03;;
2105;SDS011;1059;52.548;13.408;2023-02-19T02:15:58;6.60;;;5.20;;
2105;SDS011;1059;52.548;13.408;2023-02-19T02:18:34;6.00;;;5.40;;
2105;SDS011;1059;52.548;13.408;2023-02-19T02:21:22;7.50;;;4.90;;
2105;SDS011;1059;52.548;13.408;2023-02-19T02:24:26;6.30;;;5.67;;
2105;SDS011;1059;52.548;13.408;2023-02-19T02:30:10;6.77;;;5.03;;
2105;SDS011;1059;52.548;13.408;2023-02-19T02:32:44;10.23;;;6.23;;
2105;SDS011;1059;52.548;13.408;2023-02-19T02:35:19;8.80;;;5.93;;
2105;SDS011;1059;52.548;13.408;2023-02-19T02:37:48;6.90;;;4.93;;
2105;SDS011;1059;52.548;13.408;2023-02-19T02:40:17;13.00;;;5.60;;
2105;SDS011;1059;52.548;13.408;2023-02-19T02:42:44;6.13;;;4.10;;
2105;SDS011;1059;52.548;13.408;2023-02-19T02:45:27;6.60;;;4.80;;
2105;SDS011;1059;52.548;13.408;2023-02-19T02:50:51;4.87;;;4.10;;
2105;SDS011;1059;52.548;13.408;2023-02-19T02:53:21;8.57;;;4.33;;
2105;SDS011;1059;52.548;13.408;2023-02-19T02:56:09;6.47;;;4.90;;
2105;SDS011;1059;52.548;13.408;2023-02-19T02:58:40;8.43;;;4.60;;
2105;SDS011;1059;52.548;13.408;2023-02-19T03:01:10;7.03;;;4.67;;
2105;SDS011;1059;52.548;13.408;2023-02-19T03:03:59;7.27;;;4.83;;
2105;SDS011;1059;52.548;13.408;2023-02-19T03:06:30;12.40;;;5.40;;
2105;SDS011;1059;52.548;13.408;2023-02-19T03:09:01;6.47;;;4.77;;
2105;SDS011;1059;52.548;13.408;2023-02-19T03:11:34;11.63;;;4.60;;
2105;SDS011;1059;52.548;13.408;2023-02-19T03:14:20;8.53;;;4.80;;
2105;SDS011;1059;52.548;13.408;2023-02-19T03:17:09;8.30;;;4.77;;
2105;SDS011;1059;52.548;13.408;2023-02-19T03:20:00;9.10;;;4.77;;
2105;SDS011;1059;52.548;13.408;2023-02-19T03:22:31;8.60;;;5.27;;
2105;SDS011;1059;52.548;13.408;2023-02-19T03:25:02;8.03;;;5.20;;
2105;SDS011;1059;52.548;13.408;2023-02-19T03:27:48;7.23;;;4.33;;
2105;SDS011;1059;52.548;13.408;2023-02-19T03:30:18;11.10;;;4.87;;
2105;SDS011;1059;52.548;13.408;2023-02-19T03:32:50;9.80;;;5.60;;
2105;SDS011;1059;52.548;13.408;2023-02-19T03:35:20;9.63;;;5.07;;
2105;SDS011;1059;52.548;13.408;2023-02-19T03:37:49;8.50;;;4.93;;
2105;SDS011;1059;52.548;13.408;2023-02-19T03:40:20;7.37;;;4.60;;
2105;SDS011;1059;52.548;13.408;2023-02-19T03:42:51;7.30;;;4.17;;
2105;SDS011;1059;52.548;13.408;2023-02-19T03:45:29;8.60;;;4.50;;
2105;SDS011;1059;52.548;13.408;2023-02-19T03:48:17;8.43;;;3.47;;
2105;SDS011;1059;52.548;13.408;2023-02-19T03:50:51;8.33;;;3.20;;
2105;SDS011;1059;52.548;13.408;2023-02-19T03:53:27;4.70;;;3.00;;
2105;SDS011;1059;52.548;13.408;2023-02-19T03:56:01;7.53;;;3.20;;
2105;SDS011;1059;52.548;13.408;2023-02-19T03:58:34;4.60;;;2.53;;
2105;SDS011;1059;52.548;13.408;2023-02-19T04:01:07;5.30;;;3.20;;
2105;SDS011;1059;52.548;13.408;2023-02-19T04:03:40;9.17;;;3.17;;
2105;SDS011;1059;52.548;13.408;2023-02-19T04:06:12;4.70;;;2.57;;
2105;SDS011;1059;52.548;13.408;2023-02-19T04:08:41;5.63;;;3.53;;
2105;SDS011;1059;52.548;13.408;2023-02-19T04:11:11;4.07;;;3.17;;
2105;SDS011;1059;52.548;13.408;2023-02-19T04:13:40;5.47;;;3.27;;
2105;SDS011;1059;52.548;13.408;2023-02-19T04:16:12;6.43;;;3.70;;
2105;SDS011;1059;52.548;13.408;2023-02-19T04:18:44;6.10;;;3.00;;
2105;SDS011;1059;52.548;13.408;2023-02-19T04:21:13;5.40;;;3.03;;
2105;SDS011;1059;52.548;13.408;2023-02-19T04:23:41;9.87;;;4.07;;
2105;SDS011;1059;52.548;13.408;2023-02-19T04:26:10;4.63;;;3.30;;
2105;SDS011;1059;52.548;13.408;2023-02-19T04:28:38;4.70;;;2.90;;
2105;SDS011;1059;52.548;13.408;2023-02-19T04:31:07;9.60;;;3.67;;
2105;SDS011;1059;52.548;13.408;2023-02-19T04:33:34;8.77;;;2.70;;
2105;SDS011;1059;52.548;13.408;2023-02-19T04:36:03;6.17;;;2.40;;
2105;SDS011;1059;52.548;13.408;2023-02-19T04:38:32;6.10;;;3.40;;
2105;SDS011;1059;52.548;13.408;2023-02-19T04:40:59;9.00;;;3.40;;
2105;SDS011;1059;52.548;13.408;2023-02-19T04:43:26;6.50;;;2.47;;
2105;SDS011;1059;52.548;13.408;2023-02-19T04:45:52;3.77;;;2.77;;
2105;SDS011;1059;52.548;13.408;2023-02-19T04:48:19;7.20;;;2.37;;
2105;SDS011;1059;52.548;13.408;2023-02-19T04:50:46;9.47;;;3.37;;
2105;SDS011;1059;52.548;13.408;2023-02-19T04:53:14;3.13;;;2.23;;
2105;SDS011;1059;52.548;13.408;2023-02-19T04:55:41;7.67;;;2.93;;
2105;SDS011;1059;52.548;13.408;2023-02-19T04:58:08;9.27;;;4.10;;
2105;SDS011;1059;52.548;13.408;2023-02-19T05:00:35;6.07;;;3.30;;
2105;SDS011;1059;52.548;13.408;2023-02-19T05:03:02;7.27;;;3.20;;
2105;SDS011;1059;52.548;13.408;2023-02-19T05:05:28;5.97;;;3.20;;
2105;SDS011;1059;52.548;13.408;2023-02-19T05:07:56;8.90;;;3.87;;
2105;SDS011;1059;52.548;13.408;2023-02-19T05:10:24;5.30;;;3.17;;
2105;SDS011;1059;52.548;13.408;2023-02-19T05:12:51;5.27;;;2.97;;
2105;SDS011;1059;52.548;13.408;2023-02-19T05:15:19;7.20;;;3.37;;
2105;SDS011;1059;52.548;13.408;2023-02-19T05:17:46;8.00;;;4.30;;
2105;SDS011;1059;52.548;13.408;2023-02-19T05:20:13;5.93;;;3.80;;
2105;SDS011;1059;52.548;13.408;2023-02-19T05:22:40;7.83;;;4.00;;
2105;SDS011;1059;52.548;13.408;2023-02-19T05:25:06;11.50;;;3.73;;
2105;SDS011;1059;52.548;13.408;2023-02-19T05:27:35;8.70;;;3.77;;
2105;SDS011;1059;52.548;13.408;2023-02-19T05:30:02;7.47;;;3.50;;
2105;SDS011;1059;52.548;13.408;2023-02-19T05:32:29;5.90;;;3.90;;
2105;SDS011;1059;52.548;13.408;2023-02-19T05:34:55;9.60;;;3.80;;
2105;SDS011;1059;52.548;13.408;2023-02-19T05:37:22;7.53;;;3.37;;
2105;SDS011;1059;52.548;13.408;2023-02-19T05:39:49;5.87;;;4.33;;
2105;SDS011;1059;52.548;13.408;2023-02-19T05:42:16;5.83;;;3.90;;
2105;SDS011;1059;52.548;13.408;2023-02-19T05:44:44;6.50;;;3.97;;
2105;SDS011;1059;52.548;13.408;2023-02-19T05:47:11;6.63;;;3.60;;
2105;SDS011;1059;52.548;13.408;2023-02-19T05:49:38;7.20;;;4.00;;
2105;SDS011;1059;52.548;13.408;2023-02-19T05:52:05;5.03;;;3.53;;
2105;SDS011;1059;52.548;13.408;2023-02-19T05:54:31;8.57;;;3.60;;
2105;SDS011;1059;52.548;13.408;2023-02-19T05:56:58;8.70;;;3.40;;
2105;SDS011;1059;52.548;13.408;2023-02-19T05:59:25;9.03;;;4.10;;
2105;SDS011;1059;52.548;13.408;2023-02-19T06:01:53;8.33;;;4.10;;
2105;SDS011;1059;52.548;13.408;2023-02-19T06:04:22;6.60;;;3.67;;
2105;SDS011;1059;52.548;13.408;2023-02-19T06:06:49;5.17;;;2.87;;
2105;SDS011;1059;52.548;13.408;2023-02-19T06:09:16;7.50;;;3.43;;
2105;SDS011;1059;52.548;13.408;2023-02-19T06:11:42;4.70;;;2.80;;
2105;SDS011;1059;52.548;13.408;2023-02-19T06:14:10;6.53;;;2.83;;
2105;SDS011;1059;52.548;13.408;2023-02-19T06:16:38;4.47;;;2.97;;
2105;SDS011;1059;52.548;13.408;2023-02-19T06:19:07;5.80;;;2.00;;
2105;SDS011;1059;52.548;13.408;2023-02-19T06:21:34;3.57;;;2.40;;
2105;SDS011;1059;52.548;13.408;2023-02-19T06:24:04;5.93;;;2.90;;
2105;SDS011;1059;52.548;13.408;2023-02-19T06:26:32;8.60;;;3.00;;
2105;SDS011;1059;52.548;13.408;2023-02-19T06:28:59;6.23;;;2.50;;
2105;SDS011;1059;52.548;13.408;2023-02-19T06:31:26;5.10;;;2.50;;
2105;SDS011;1059;52.548;13.408;2023-02-19T06:33:53;5.00;;;2.97;;
2105;SDS011;1059;52.548;13.408;2023-02-19T06:36:21;9.30;;;2.53;;
2105;SDS011;1059;52.548;13.408;2023-02-19T06:38:48;5.83;;;2.57;;
2105;SDS011;1059;52.548;13.408;2023-02-19T06:41:16;4.37;;;2.80;;
2105;SDS011;1059;52.548;13.408;2023-02-19T06:43:43;7.93;;;3.00;;
2105;SDS011;1059;52.548;13.408;2023-02-19T06:46:10;3.97;;;2.40;;
2105;SDS011;1059;52.548;13.408;2023-02-19T06:48:39;5.13;;;2.50;;
2105;SDS011;1059;52.548;13.408;2023-02-19T06:51:08;5.63;;;3.03;;
2105;SDS011;1059;52.548;13.408;2023-02-19T06:53:38;8.97;;;3.63;;
2105;SDS011;1059;52.548;13.408;2023-02-19T06:56:06;6.53;;;2.93;;
2105;SDS011;1059;52.548;13.408;2023-02-19T06:58:46;9.43;;;3.37;;
2105;SDS011;1059;52.548;13.408;2023-02-19T07:01:13;5.60;;;2.90;;
2105;SDS011;1059;52.548;13.408;2023-02-19T07:03:39;6.17;;;2.80;;
2105;SDS011;1059;52.548;13.408;2023-02-19T07:06:06;9.93;;;3.70;;
2105;SDS011;1059;52.548;13.408;2023-02-19T07:08:33;5.50;;;3.40;;
2105;SDS011;1059;52.548;13.408;2023-02-19T07:11:02;9.20;;;3.97;;
2105;SDS011;1059;52.548;13.408;2023-02-19T07:13:29;6.60;;;3.43;;
2105;SDS011;1059;52.548;13.408;2023-02-19T07:15:57;6.83;;;3.30;;
2105;SDS011;1059;52.548;13.408;2023-02-19T07:18:25;7.33;;;3.57;;
2105;SDS011;1059;52.548;13.408;2023-02-19T07:20:51;6.20;;;3.10;;
2105;SDS011;1059;52.548;13.408;2023-02-19T07:23:18;5.30;;;3.50;;
2105;SDS011;1059;52.548;13.408;2023-02-19T07:25:45;6.83;;;3.30;;
2105;SDS011;1059;52.548;13.408;2023-02-19T07:28:14;5.47;;;3.00;;
2105;SDS011;1059;52.548;13.408;2023-02-19T07:30:40;8.20;;;3.30;;
2105;SDS011;1059;52.548;13.408;2023-02-19T07:33:08;4.70;;;2.77;;
2105;SDS011;1059;52.548;13.408;2023-02-19T07:35:36;4.73;;;3.10;;
2105;SDS011;1059;52.548;13.408;2023-02-19T07:38:02;3.97;;;3.10;;
2105;SDS011;1059;52.548;13.408;2023-02-19T07:40:29;8.30;;;3.57;;
2105;SDS011;1059;52.548;13.408;2023-02-19T07:42:57;5.43;;;3.20;;
2105;SDS011;1059;52.548;13.408;2023-02-19T07:45:26;6.20;;;3.63;;
2105;SDS011;1059;52.548;13.408;2023-02-19T07:47:53;4.30;;;2.90;;
2105;SDS011;1059;52.548;13.408;2023-02-19T07:50:20;7.03;;;3.00;;
2105;SDS011;1059;52.548;13.408;2023-02-19T07:52:46;5.43;;;3.30;;
2105;SDS011;1059;52.548;13.408;2023-02-19T07:55:13;4.80;;;3.10;;
2105;SDS011;1059;52.548;13.408;2023-02-19T07:57:40;7.97;;;3.70;;
2105;SDS011;1059;52.548;13.408;2023-02-19T08:00:07;4.37;;;2.80;;
2105;SDS011;1059;52.548;13.408;2023-02-19T08:02:36;7.73;;;3.20;;
2105;SDS011;1059;52.548;13.408;2023-02-19T08:05:21;6.70;;;3.20;;
2105;SDS011;1059;52.548;13.408;2023-02-19T08:07:47;5.27;;;2.77;;
2105;SDS011;1059;52.548;13.408;2023-02-19T08:10:14;4.33;;;2.63;;
2105;SDS011;1059;52.548;13.408;2023-02-19T08:12:59;7.30;;;3.63;;
2105;SDS011;1059;52.548;13.408;2023-02-19T08:15:47;8.60;;;3.23;;
2105;SDS011;1059;52.548;13.408;2023-02-19T08:18:16;4.43;;;3.13;;
2105;SDS011;1059;52.548;13.408;2023-02-19T08:20:44;4.37;;;3.03;;
2105;SDS011;1059;52.548;13.408;2023-02-19T08:23:12;15.10;;;3.67;;
2105;SDS011;1059;52.548;13.408;2023-02-19T08:25:39;5.63;;;3.10;;
2105;SDS011;1059;52.548;13.408;2023-02-19T08:28:07;5.60;;;3.23;;
2105;SDS011;1059;52.548;13.408;2023-02-19T08:30:35;6.57;;;3.37;;
2105;SDS011;1059;52.548;13.408;2023-02-19T08:33:03;5.17;;;2.63;;
2105;SDS011;1059;52.548;13.408;2023-02-19T08:35:34;9.50;;;4.70;;
2105;SDS011;1059;52.548;13.408;2023-02-19T08:38:01;10.47;;;3.40;;
2105;SDS011;1059;52.548;13.408;2023-02-19T08:40:28;7.30;;;2.90;;
2105;SDS011;1059;52.548;13.408;2023-02-19T08:43:00;7.00;;;2.50;;
2105;SDS011;1059;52.548;13.408;2023-02-19T08:45:28;3.40;;;2.50;;
2105;SDS011;1059;52.548;13.408;2023-02-19T08:47:55;6.07;;;2.70;;
2105;SDS011;1059;52.548;13.408;2023-02-19T08:50:22;7.97;;;4.00;;
2105;SDS011;1059;52.548;13.408;2023-02-19T08:52:50;11.97;;;2.90;;
2105;SDS011;1059;52.548;13.408;2023-02-19T08:55:17;6.17;;;2.53;;
2105;SDS011;1059;52.548;13.408;2023-02-19T08:57:44;3.90;;;2.90;;
2105;SDS011;1059;52.548;13.408;2023-02-19T09:00:12;8.30;;;2.13;;
2105;SDS011;1059;52.548;13.408;2023-02-19T09:02:39;5.63;;;2.30;;
2105;SDS011;1059;52.548;13.408;2023-02-19T09:05:06;5.60;;;2.97;;
2105;SDS011;1059;52.548;13.408;2023-02-19T09:07:33;4.00;;;2.37;;
2105;SDS011;1059;52.548;13.408;2023-02-19T09:10:01;9.43;;;3.03;;
2105;SDS011;1059;52.548;13.408;2023-02-19T09:12:28;9.00;;;2.63;;
2105;SDS011;1059;52.548;13.408;2023-02-19T09:14:57;12.13;;;2.80;;
2105;SDS011;1059;52.548;13.408;2023-02-19T09:17:24;10.27;;;2.77;;
2105;SDS011;1059;52.548;13.408;2023-02-19T09:19:51;4.30;;;2.33;;
2105;SDS011;1059;52.548;13.408;2023-02-19T09:22:18;4.73;;;2.10;;
2105;SDS011;1059;52.548;13.408;2023-02-19T09:24:45;6.17;;;2.07;;
2105;SDS011;1059;52.548;13.408;2023-02-19T09:27:15;5.73;;;2.10;;
2105;SDS011;1059;52.548;13.408;2023-02-19T09:29:43;4.03;;;1.90;;
2105;SDS011;1059;52.548;13.408;2023-02-19T09:32:10;8.07;;;2.57;;
2105;SDS011;1059;52.548;13.408;2023-02-19T09:34:37;8.37;;;2.53;;
2105;SDS011;1059;52.548;13.408;2023-02-19T09:37:04;7.80;;;3.00;;
2105;SDS011;1059;52.548;13.408;2023-02-19T09:39:32;6.80;;;2.47;;
2105;SDS011;1059;52.548;13.408;2023-02-19T09:42:01;5.40;;;2.07;;
2105;SDS011;1059;52.548;13.408;2023-02-19T09:44:32;7.30;;;2.13;;
2105;SDS011;1059;52.548;13.408;2023-02-19T09:47:01;5.37;;;2.00;;
2105;SDS011;1059;52.548;13.408;2023-02-19T09:49:33;4.40;;;1.83;;
2105;SDS011;1059;52.548;13.408;2023-02-19T09:52:02;4.93;;;1.73;;
2105;SDS011;1059;52.548;13.408;2023-02-19T09:54:37;5.67;;;2.00;;
2105;SDS011;1059;52.548;13.408;2023-02-19T09:57:08;11.70;;;2.10;;
2105;SDS011;1059;52.548;13.408;2023-02-19T09:59:43;5.93;;;2.17;;
2105;SDS011;1059;52.548;13.408;2023-02-19T10:02:12;5.60;;;2.03;;
2105;SDS011;1059;52.548;13.408;2023-02-19T10:04:41;5.90;;;2.10;;
2105;SDS011;1059;52.548;13.408;2023-02-19T10:07:10;5.10;;;1.93;;
2105;SDS011;1059;52.548;13.408;2023-02-19T10:09:38;11.50;;;2.30;;
2105;SDS011;1059;52.548;13.408;2023-02-19T10:12:11;4.53;;;1.90;;
2105;SDS011;1059;52.548;13.408;2023-02-19T10:14:42;4.83;;;1.80;;
2105;SDS011;1059;52.548;13.408;2023-02-19T10:17:15;7.13;;;2.00;;
2105;SDS011;1059;52.548;13.408;2023-02-19T10:19:48;10.77;;;2.20;;
2105;SDS011;1059;52.548;13.408;2023-02-19T10:22:15;4.80;;;1.60;;
2105;SDS011;1059;52.548;13.408;2023-02-19T10:24:42;9.23;;;5.43;;
2105;SDS011;1059;52.548;13.408;2023-02-19T10:27:11;3.67;;;1.73;;
2105;SDS011;1059;52.548;13.408;2023-02-19T10:29:38;6.50;;;1.63;;
2105;SDS011;1059;52.548;13.408;2023-02-19T10:32:13;5.27;;;1.90;;
2105;SDS011;1059;52.548;13.408;2023-02-19T10:34:44;5.63;;;1.70;;
2105;SDS011;1059;52.548;13.408;2023-02-19T10:37:12;6.40;;;1.70;;
2105;SDS011;1059;52.548;13.408;2023-02-19T10:39:42;6.30;;;1.60;;
2105;SDS011;1059;52.548;13.408;2023-02-19T10:42:15;6.73;;;1.57;;
2105;SDS011;1059;52.548;13.408;2023-02-19T10:44:44;5.53;;;2.93;;
2105;SDS011;1059;52.548;13.408;2023-02-19T10:47:18;5.30;;;2.13;;
2105;SDS011;1059;52.548;13.408;2023-02-19T10:49:48;3.83;;;1.47;;
2105;SDS011;1059;52.548;13.408;2023-02-19T10:52:17;2.90;;;1.83;;
2105;SDS011;1059;52.548;13.408;2023-02-19T10:54:49;4.30;;;1.43;;
2105;SDS011;1059;52.548;13.408;2023-02-19T10:57:23;4.87;;;1.47;;
2105;SDS011;1059;52.548;13.408;2023-02-19T10:59:57;6.93;;;1.97;;
2105;SDS011;1059;52.548;13.408;2023-02-19T11:02:27;9.67;;;2.13;;
2105;SDS011;1059;52.548;13.408;2023-02-19T11:05:13;6.33;;;1.50;;
2105;SDS011;1059;52.548;13.408;2023-02-19T11:07:44;3.10;;;1.43;;
2105;SDS011;1059;52.548;13.408;2023-02-19T11:10:20;7.53;;;2.10;;
2105;SDS011;1059;52.548;13.408;2023-02-19T11:12:51;3.50;;;1.70;;
2105;SDS011;1059;52.548;13.408;2023-02-19T11:15:20;2.27;;;1.20;;
2105;SDS011;1059;52.548;13.408;2023-02-19T11:17:54;2.57;;;1.60;;
2105;SDS011;1059;52.548;13.408;2023-02-19T11:20:24;5.30;;;1.90;;
2105;SDS011;1059;52.548;13.408;2023-02-19T11:22:54;5.60;;;1.43;;
2105;SDS011;1059;52.548;13.408;2023-02-19T11:25:24;2.37;;;1.30;;
2105;SDS011;1059;52.548;13.408;2023-02-19T11:27:55;3.60;;;1.67;;
2105;SDS011;1059;52.548;13.408;2023-02-19T11:30:30;4.17;;;1.10;;
2105;SDS011;1059;52.548;13.408;2023-02-19T11:33:20;4.60;;;1.43;;
2105;SDS011;1059;52.548;13.408;2023-02-19T11:35:51;7.23;;;1.70;;
2105;SDS011;1059;52.548;13.408;2023-02-19T11:38:24;3.23;;;1.30;;
2105;SDS011;1059;52.548;13.408;2023-02-19T11:40:52;6.00;;;1.60;;
2105;SDS011;1059;52.548;13.408;2023-02-19T11:46:28;3.17;;;1.23;;
2105;SDS011;1059;52.548;13.408;2023-02-19T11:49:06;2.53;;;1.00;;
2105;SDS011;1059;52.548;13.408;2023-02-19T11:51:51;3.60;;;1.53;;
2105;SDS011;1059;52.548;13.408;2023-02-19T11:54:46;6.30;;;1.80;;
2105;SDS011;1059;52.548;13.408;2023-02-19T11:57:21;5.47;;;1.60;;
2105;SDS011;1059;52.548;13.408;2023-02-19T12:00:01;2.47;;;1.40;;
2105;SDS011;1059;52.548;13.408;2023-02-19T12:02:50;5.17;;;2.50;;
2105;SDS011;1059;52.548;13.408;2023-02-19T12:05:41;5.23;;;1.70;;
2105;SDS011;1059;52.548;13.408;2023-02-19T12:08:22;2.77;;;2.23;;
2105;SDS011;1059;52.548;13.408;2023-02-19T12:14:16;4.37;;;2.13;;
2105;SDS011;1059;52.548;13.408;2023-02-19T12:17:11;2.60;;;1.40;;
2105;SDS011;1059;52.548;13.408;2023-02-19T12:19:49;2.80;;;1.33;;
2105;SDS011;1059;52.548;13.408;2023-02-19T12:22:27;3.50;;;1.23;;
2105;SDS011;1059;52.548;13.408;2023-02-19T12:28:02;3.87;;;1.43;;
2105;SDS011;1059;52.548;13.408;2023-02-19T12:30:43;6.03;;;1.50;;
2105;SDS011;1059;52.548;13.408;2023-02-19T12:33:34;6.37;;;2.27;;
2105;SDS011;1059;52.548;13.408;2023-02-19T12:36:15;3.60;;;1.30;;
2105;SDS011;1059;52.548;13.408;2023-02-19T12:38:53;2.83;;;1.30;;
2105;SDS011;1059;52.548;13.408;2023-02-19T12:41:33;3.10;;;1.40;;
2105;SDS011;1059;52.548;13.408;2023-02-19T12:44:08;2.17;;;1.37;;
2105;SDS011;1059;52.548;13.408;2023-02-19T12:46:39;4.40;;;1.53;;
2105;SDS011;1059;52.548;13.408;2023-02-19T12:49:09;1.83;;;0.97;;
2105;SDS011;1059;52.548;13.408;2023-02-19T12:51:42;5.83;;;1.03;;
2105;SDS011;1059;52.548;13.408;2023-02-19T12:54:16;3.00;;;1.10;;
2105;SDS011;1059;52.548;13.408;2023-02-19T12:56:49;2.70;;;1.30;;
2105;SDS011;1059;52.548;13.408;2023-02-19T12:59:21;2.93;;;1.30;;
2105;SDS011;1059;52.548;13.408;2023-02-19T13:01:54;4.20;;;1.13;;
2105;SDS011;1059;52.548;13.408;2023-02-19T13:04:26;1.60;;;1.10;;
2105;SDS011;1059;52.548;13.408;2023-02-19T13:07:00;3.17;;;1.30;;
2105;SDS011;1059;52.548;13.408;2023-02-19T13:09:33;6.17;;;1.80;;
2105;SDS011;1059;52.548;13.408;2023-02-19T13:12:05;2.77;;;1.30;;
2105;SDS011;1059;52.548;13.408;2023-02-19T13:14:37;5.10;;;2.50;;
2105;SDS011;1059;52.548;13.408;2023-02-19T13:17:13;3.23;;;1.10;;
2105;SDS011;1059;52.548;13.408;2023-02-19T13:19:47;7.97;;;1.57;;
2105;SDS011;1059;52.548;13.408;2023-02-19T13:22:18;2.50;;;1.13;;
2105;SDS011;1059;52.548;13.408;2023-02-19T13:25:08;3.00;;;1.10;;
2105;SDS011;1059;52.548;13.408;2023-02-19T13:30:45;2.30;;;1.00;;
2105;SDS011;1059;52.548;13.408;2023-02-19T13:33:32;3.63;;;1.47;;
2105;SDS011;1059;52.548;13.408;2023-02-19T13:36:11;4.13;;;1.47;;
2105;SDS011;1059;52.548;13.408;2023-02-19T13:38:41;3.73;;;1.90;;
2105;SDS011;1059;52.548;13.408;2023-02-19T13:41:18;3.20;;;1.27;;
2105;SDS011;1059;52.548;13.408;2023-02-19T13:44:00;3.80;;;1.20;;
2105;SDS011;1059;52.548;13.408;2023-02-19T13:46:36;4.10;;;1.03;;
2105;SDS011;1059;52.548;13.408;2023-02-19T14:01:18;2.80;;;1.10;;
2105;SDS011;1059;52.548;13.408;2023-02-19T14:04:06;3.30;;;1.20;;
2105;SDS011;1059;52.548;13.408;2023-02-19T14:09:47;4.27;;;1.50;;
2105;SDS011;1059;52.548;13.408;2023-02-19T14:12:18;4.20;;;1.40;;
2105;SDS011;1059;52.548;13.408;2023-02-19T14:14:46;2.00;;;1.00;;
2105;SDS011;1059;52.548;13.408;2023-02-19T14:17:25;5.90;;;2.10;;
2105;SDS011;1059;52.548;13.408;2023-02-19T14:19:54;3.50;;;1.50;;
2105;SDS011;1059;52.548;13.408;2023-02-19T14:25:26;2.07;;;1.00;;
2105;SDS011;1059;52.548;13.408;2023-02-19T14:27:56;3.20;;;1.10;;
2105;SDS011;1059;52.548;13.408;2023-02-19T14:30:26;5.23;;;1.40;;
2105;SDS011;1059;52.548;13.408;2023-02-19T14:32:55;4.47;;;1.40;;
2105;SDS011;1059;52.548;13.408;2023-02-19T14:35:23;2.47;;;1.00;;
2105;SDS011;1059;52.548;13.408;2023-02-19T14:38:00;4.47;;;1.23;;
2105;SDS011;1059;52.548;13.408;2023-02-19T14:40:30;5.70;;;1.60;;
2105;SDS011;1059;52.548;13.408;2023-02-19T14:43:01;4.87;;;2.90;;
2105;SDS011;1059;52.548;13.408;2023-02-19T14:45:33;4.57;;;1.40;;
2105;SDS011;1059;52.548;13.408;2023-02-19T14:48:07;4.20;;;2.17;;
2105;SDS011;1059;52.548;13.408;2023-02-19T14:50:42;3.77;;;1.17;;
2105;SDS011;1059;52.548;13.408;2023-02-19T14:53:13;5.73;;;1.00;;
2105;SDS011;1059;52.548;13.408;2023-02-19T14:55:41;4.43;;;1.23;;
2105;SDS011;1059;52.548;13.408;2023-02-19T14:58:12;4.63;;;1.13;;
2105;SDS011;1059;52.548;13.408;2023-02-19T15:00:42;3.10;;;1.50;;
2105;SDS011;1059;52.548;13.408;2023-02-19T15:03:23;5.83;;;1.37;;
2105;SDS011;1059;52.548;13.408;2023-02-19T15:05:53;3.40;;;1.43;;
2105;SDS011;1059;52.548;13.408;2023-02-19T15:08:25;6.83;;;2.27;;
2105;SDS011;1059;52.548;13.408;2023-02-19T15:10:56;3.50;;;1.40;;
2105;SDS011;1059;52.548;13.408;2023-02-19T15:13:24;3.80;;;1.60;;
2105;SDS011;1059;52.548;13.408;2023-02-19T15:15:52;6.90;;;2.90;;
2105;SDS011;1059;52.548;13.408;2023-02-19T15:18:21;2.43;;;1.63;;
2105;SDS011;1059;52.548;13.408;2023-02-19T15:20:51;5.53;;;1.17;;
2105;SDS011;1059;52.548;13.408;2023-02-19T15:23:26;2.10;;;1.37;;
2105;SDS011;1059;52.548;13.408;2023-02-19T15:25:55;3.83;;;1.00;;
2105;SDS011;1059;52.548;13.408;2023-02-19T15:28:27;5.47;;;1.27;;
2105;SDS011;1059;52.548;13.408;2023-02-19T15:31:04;4.17;;;1.10;;
2105;SDS011;1059;52.548;13.408;2023-02-19T15:33:39;3.20;;;1.30;;
2105;SDS011;1059;52.548;13.408;2023-02-19T15:36:13;2.50;;;1.20;;
2105;SDS011;1059;52.548;13.408;2023-02-19T15:38:42;1.67;;;1.00;;
2105;SDS011;1059;52.548;13.408;2023-02-19T15:41:13;2.60;;;1.17;;
2105;SDS011;1059;52.548;13.408;2023-02-19T15:43:47;2.40;;;1.17;;
2105;SDS011;1059;52.548;13.408;2023-02-19T15:46:19;1.90;;;1.20;;
2105;SDS011;1059;52.548;13.408;2023-02-19T15:48:49;2.87;;;1.27;;
2105;SDS011;1059;52.548;13.408;2023-02-19T15:51:23;5.17;;;1.40;;
2105;SDS011;1059;52.548;13.408;2023-02-19T15:53:56;2.90;;;1.23;;
2105;SDS011;1059;52.548;13.408;2023-02-19T15:56:28;4.47;;;1.23;;
2105;SDS011;1059;52.548;13.408;2023-02-19T15:58:57;3.67;;;1.30;;
2105;SDS011;1059;52.548;13.408;2023-02-19T16:01:28;2.63;;;1.70;;
2105;SDS011;1059;52.548;13.408;2023-02-19T16:03:57;6.70;;;1.30;;